Sunflower Hakata — JL6711 — position and weather

sailwx.info

Track history (hours):
 
Tides and Currents Weather Stations Pressure Air Temp Water Temp Dewpoint Dewpoint Depression Visibility Wind Speed Wind Dir Waves Ship Positions

Sunflower Hakata

Last reported at 2014-Jul-22 17:19 UTC. Time now 2014-Jul-22 19:47 UTC.
Position N 34°03' E 132°48'.

Length 194 m; draft 6.5 m.

Type: Cargo ship. MMSI: 431501764.

Date/timePositionNaut miles runAvg speedWind from/ knotsBaromVisibWave heightAir tempDewpointWater temp
2014-Jul-22 17:19N 34°03' E 132°48'1621.1
2014-Jul-22 16:33N 33°51' E 132°35'11118.5
2014-Jul-22 10:33N 33°52' E 130°21'1514.8
2014-Jul-22 09:32N 33°37' E 130°24'0 0.5
2014-Jul-22 08:33N 33°38' E 130°24'0 0.0
2014-Jul-22 07:33N 33°38' E 130°24'0 0.0
2014-Jul-22 06:33N 33°38' E 130°24'0 0.0
2014-Jul-22 05:31N 33°38' E 130°24'0 0.0
2014-Jul-22 04:31N 33°38' E 130°24'0 0.0
2014-Jul-22 03:31N 33°38' E 130°24'0 0.0
2014-Jul-22 02:31N 33°38' E 130°24'0 0.0
2014-Jul-22 01:31N 33°38' E 130°24'0 0.0
2014-Jul-22 00:31N 33°38' E 130°24'0 0.0
2014-Jul-21 23:31N 33°38' E 130°24'0 0.1
2014-Jul-21 22:31N 33°37' E 130°24'0 0.0
2014-Jul-21 21:31N 33°37' E 130°24'0 0.0
2014-Jul-21 20:31N 33°37' E 130°24'0 0.0
2014-Jul-21 20:16N 33°37' E 130°24'0 0.0
2014-Jul-21 19:31N 33°37' E 130°24'0 0.0
2014-Jul-21 18:31N 33°37' E 130°24'0 0.0
2014-Jul-21 17:32N 33°37' E 130°24'0 0.0
2014-Jul-21 16:31N 33°37' E 130°24'0 0.0
2014-Jul-21 15:31N 33°37' E 130°24'0 0.0
2014-Jul-21 14:31N 33°37' E 130°24'0 0.0
2014-Jul-21 13:32N 33°37' E 130°24'0 0.0
2014-Jul-21 12:31N 33°37' E 130°24'0 0.0
2014-Jul-21 11:31N 33°37' E 130°24'0 0.0
2014-Jul-21 10:28N 33°37' E 130°24'0 0.0
2014-Jul-21 09:31N 33°37' E 130°24'0 0.0
2014-Jul-21 08:28N 33°37' E 130°24'0 0.0
2014-Jul-21 07:31N 33°37' E 130°24'0 0.0
2014-Jul-21 06:31N 33°37' E 130°24'0 0.0
2014-Jul-21 05:31N 33°37' E 130°24'0 0.0
2014-Jul-21 04:31N 33°37' E 130°24'0 0.0
2014-Jul-21 03:31N 33°37' E 130°24'0 0.0
2014-Jul-21 02:31N 33°37' E 130°24'0 0.0
2014-Jul-21 01:31N 33°37' E 130°24'0 0.0
2014-Jul-21 00:28N 33°37' E 130°24'0 0.0
2014-Jul-20 23:31N 33°37' E 130°24'0 0.0
2014-Jul-20 22:31N 33°37' E 130°24'0 0.0
2014-Jul-20 21:33N 33°37' E 130°24'0 0.0
2014-Jul-20 20:32N 33°37' E 130°24'8 7.9
2014-Jul-20 19:33N 33°41' E 130°16'2018.7
2014-Jul-20 18:29N 33°59' E 130°28'1819.9
2014-Jul-20 17:33N 34°02' E 130°50'37416.0
2014-Jul-19 18:14N 34°23' E 138°21'5118.7
2014-Jul-19 15:30N 34°48' E 139°15'1718.3
2014-Jul-19 14:33N 34°59' E 139°31'1918.8
2014-Jul-19 13:33N 35°14' E 139°46'1414.2
2014-Jul-19 12:33N 35°28' E 139°48'9 9.4
2014-Jul-19 11:33N 35°37' E 139°48'0 0.0
2014-Jul-19 10:34N 35°37' E 139°48'0 0.0
2014-Jul-19 09:33N 35°37' E 139°48'0 0.0
2014-Jul-19 08:24N 35°37' E 139°48'0 0.0
2014-Jul-19 07:27N 35°37' E 139°48'0 0.0
2014-Jul-19 06:30N 35°37' E 139°48'0 0.0
2014-Jul-19 05:33N 35°37' E 139°48'0 0.0
2014-Jul-19 04:33N 35°37' E 139°48'0 0.0
2014-Jul-19 03:30N 35°37' E 139°48'0 0.0
2014-Jul-19 02:33N 35°37' E 139°48'0 0.0
2014-Jul-19 01:30N 35°37' E 139°48'0 0.0
2014-Jul-19 00:30N 35°37' E 139°48'0 0.0
2014-Jul-18 23:30N 35°37' E 139°48'0 0.0
2014-Jul-18 22:33N 35°37' E 139°48'0 0.0
2014-Jul-18 21:30N 35°37' E 139°48'0 0.0
2014-Jul-18 20:33N 35°37' E 139°48'6 6.2
2014-Jul-18 19:33N 35°32' E 139°52'1514.8
2014-Jul-18 18:33N 35°18' E 139°44'1514.8
2014-Jul-18 17:33N 35°04' E 139°42'2019.5
2014-Jul-18 16:33N 34°49' E 139°25'6620.5
2014-Jul-18 13:20N 34°17' E 138°16'16518.3
2014-Jul-18 04:20N 33°53' E 134°59'1621.0
2014-Jul-18 03:33N 34°10' E 134°58'2120.8
2014-Jul-18 02:34N 34°30' E 135°02'1413.6
2014-Jul-18 01:32N 34°34' E 134°45'19813.9
2014-Jul-17 11:15N 34°02' E 130°49'1722.0
2014-Jul-17 10:30N 33°59' E 130°29'2021.2
2014-Jul-17 09:33N 33°41' E 130°16'8 7.8
2014-Jul-17 08:32N 33°38' E 130°24'0 0.0
2014-Jul-17 07:32N 33°38' E 130°24'0 0.0
2014-Jul-17 06:32N 33°38' E 130°24'0 0.0
2014-Jul-17 04:32N 33°38' E 130°24'0 0.0
2014-Jul-17 03:29N 33°38' E 130°24'0 0.0
2014-Jul-17 02:29N 33°38' E 130°24'0 0.0
2014-Jul-17 01:29N 33°38' E 130°24'0 0.0
2014-Jul-17 00:32N 33°38' E 130°24'0 0.0
2014-Jul-16 23:32N 33°38' E 130°24'0 0.0
2014-Jul-16 22:32N 33°38' E 130°24'0 0.0
2014-Jul-16 21:34N 33°38' E 130°24'0 0.0
2014-Jul-16 20:34N 33°38' E 130°24'8 8.3
2014-Jul-16 19:33N 33°42' E 130°16'1918.9
2014-Jul-16 18:32N 33°58' E 130°29'19914.9
2014-Jul-16 05:11N 33°16' E 134°22'1219.2
2014-Jul-16 04:33N 33°21' E 134°35'19018.9
2014-Jul-15 18:31N 34°21' E 138°12'4620.1
2014-Jul-15 16:13N 34°38' E 139°04'1319.3
2014-Jul-15 15:33N 34°48' E 139°14'2019.9
2014-Jul-15 14:33N 35°00' E 139°33'1818.0
2014-Jul-15 13:34N 35°14' E 139°46'1414.3
2014-Jul-15 12:33N 35°29' E 139°49'9 8.6
2014-Jul-15 11:33N 35°37' E 139°48'0 0.1
2014-Jul-15 10:33N 35°37' E 139°48'0 0.1
2014-Jul-15 09:33N 35°37' E 139°48'0 0.0
2014-Jul-15 08:33N 35°37' E 139°48'0 0.0
2014-Jul-15 07:33N 35°37' E 139°48'0 0.0
2014-Jul-15 06:33N 35°37' E 139°48'0 0.0
2014-Jul-15 05:33N 35°37' E 139°48'0 0.0
2014-Jul-15 04:33N 35°37' E 139°48'0 0.0
2014-Jul-15 03:27N 35°37' E 139°48'0 0.0
2014-Jul-15 02:33N 35°37' E 139°48'0 0.0
2014-Jul-15 01:30N 35°37' E 139°48'0 0.0
2014-Jul-15 00:33N 35°37' E 139°48'0 0.0
2014-Jul-14 23:33N 35°37' E 139°48'0 0.2
2014-Jul-14 22:33N 35°37' E 139°48'0 0.0
2014-Jul-14 21:21N 35°37' E 139°48'0 0.0
2014-Jul-14 20:33N 35°37' E 139°48'0 0.0
2014-Jul-14 19:33N 35°37' E 139°48'0 0.0
2014-Jul-14 18:33N 35°37' E 139°48'0 0.0
2014-Jul-14 17:33N 35°37' E 139°48'0 0.0
2014-Jul-14 16:33N 35°37' E 139°48'0 0.0
2014-Jul-14 15:33N 35°37' E 139°48'0 0.0
2014-Jul-14 14:33N 35°37' E 139°48'0 0.0
2014-Jul-14 13:30N 35°37' E 139°48'0 0.0
2014-Jul-14 12:33N 35°37' E 139°48'0 0.0
2014-Jul-14 11:33N 35°37' E 139°48'0 0.0
2014-Jul-14 10:33N 35°37' E 139°48'0 0.0
2014-Jul-14 09:33N 35°37' E 139°48'0 0.0
2014-Jul-14 08:33N 35°37' E 139°48'0 0.0
2014-Jul-14 07:33N 35°37' E 139°48'0 0.0
2014-Jul-14 06:33N 35°37' E 139°48'0 0.0
2014-Jul-14 05:33N 35°37' E 139°48'0 0.0
2014-Jul-14 04:33N 35°37' E 139°48'0 0.0
2014-Jul-14 03:33N 35°37' E 139°48'0 0.0
2014-Jul-14 02:30N 35°37' E 139°48'0 0.0
2014-Jul-14 01:30N 35°37' E 139°48'0 0.0
2014-Jul-14 00:33N 35°37' E 139°48'0 0.0
2014-Jul-13 23:33N 35°37' E 139°48'0 0.0
2014-Jul-13 22:33N 35°37' E 139°48'0 0.0
2014-Jul-13 21:33N 35°37' E 139°48'0 0.0
2014-Jul-13 20:33N 35°37' E 139°48'9 8.6
2014-Jul-13 19:33N 35°29' E 139°51'1313.2
2014-Jul-13 18:33N 35°16' E 139°46'1918.6
2014-Jul-13 17:33N 35°00' E 139°35'23619.7
2014-Jul-13 05:33N 33°56' E 134°59'2221.5
2014-Jul-13 04:33N 34°18' E 134°58'1919.2
2014-Jul-13 03:33N 34°37' E 134°60'  
Track history (hours):
 
Tides and Currents Weather Stations Pressure Air Temp Water Temp Dewpoint Dewpoint Depression Visibility Wind Speed Wind Dir Waves Ship Positions

Sunflower Hakata

Last reported at 2014-Jul-22 17:19 UTC. Time now 2014-Jul-22 19:47 UTC.
Position N 34°03' E 132°48'.

Length 194 m; draft 6.5 m.

Type: Cargo ship. MMSI: 431501764.

Date/timePositionNaut miles runAvg speedWind from/ knotsBaromVisibWave heightAir tempDewpointWater temp
2014-Jul-22 17:19N 34°03' E 132°48'1621.1
2014-Jul-22 16:33N 33°51' E 132°35'11118.5
2014-Jul-22 10:33N 33°52' E 130°21'1514.8
2014-Jul-22 09:32N 33°37' E 130°24'0 0.5
2014-Jul-22 08:33N 33°38' E 130°24'0 0.0
2014-Jul-22 07:33N 33°38' E 130°24'0 0.0
2014-Jul-22 06:33N 33°38' E 130°24'0 0.0
2014-Jul-22 05:31N 33°38' E 130°24'0 0.0
2014-Jul-22 04:31N 33°38' E 130°24'0 0.0
2014-Jul-22 03:31N 33°38' E 130°24'0 0.0
2014-Jul-22 02:31N 33°38' E 130°24'0 0.0
2014-Jul-22 01:31N 33°38' E 130°24'0 0.0
2014-Jul-22 00:31N 33°38' E 130°24'0 0.0
2014-Jul-21 23:31N 33°38' E 130°24'0 0.1
2014-Jul-21 22:31N 33°37' E 130°24'0 0.0
2014-Jul-21 21:31N 33°37' E 130°24'0 0.0
2014-Jul-21 20:31N 33°37' E 130°24'0 0.0
2014-Jul-21 20:16N 33°37' E 130°24'0 0.0
2014-Jul-21 19:31N 33°37' E 130°24'0 0.0
2014-Jul-21 18:31N 33°37' E 130°24'0 0.0
2014-Jul-21 17:32N 33°37' E 130°24'0 0.0
2014-Jul-21 16:31N 33°37' E 130°24'0 0.0
2014-Jul-21 15:31N 33°37' E 130°24'0 0.0
2014-Jul-21 14:31N 33°37' E 130°24'0 0.0
2014-Jul-21 13:32N 33°37' E 130°24'0 0.0
2014-Jul-21 12:31N 33°37' E 130°24'0 0.0
2014-Jul-21 11:31N 33°37' E 130°24'0 0.0
2014-Jul-21 10:28N 33°37' E 130°24'0 0.0
2014-Jul-21 09:31N 33°37' E 130°24'0 0.0
2014-Jul-21 08:28N 33°37' E 130°24'0 0.0
2014-Jul-21 07:31N 33°37' E 130°24'0 0.0
2014-Jul-21 06:31N 33°37' E 130°24'0 0.0
2014-Jul-21 05:31N 33°37' E 130°24'0 0.0
2014-Jul-21 04:31N 33°37' E 130°24'0 0.0
2014-Jul-21 03:31N 33°37' E 130°24'0 0.0
2014-Jul-21 02:31N 33°37' E 130°24'0 0.0
2014-Jul-21 01:31N 33°37' E 130°24'0 0.0
2014-Jul-21 00:28N 33°37' E 130°24'0 0.0
2014-Jul-20 23:31N 33°37' E 130°24'0 0.0
2014-Jul-20 22:31N 33°37' E 130°24'0 0.0
2014-Jul-20 21:33N 33°37' E 130°24'0 0.0
2014-Jul-20 20:32N 33°37' E 130°24'8 7.9
2014-Jul-20 19:33N 33°41' E 130°16'2018.7
2014-Jul-20 18:29N 33°59' E 130°28'1819.9
2014-Jul-20 17:33N 34°02' E 130°50'37416.0
2014-Jul-19 18:14N 34°23' E 138°21'5118.7
2014-Jul-19 15:30N 34°48' E 139°15'1718.3
2014-Jul-19 14:33N 34°59' E 139°31'1918.8
2014-Jul-19 13:33N 35°14' E 139°46'1414.2
2014-Jul-19 12:33N 35°28' E 139°48'9 9.4
2014-Jul-19 11:33N 35°37' E 139°48'0 0.0
2014-Jul-19 10:34N 35°37' E 139°48'0 0.0
2014-Jul-19 09:33N 35°37' E 139°48'0 0.0
2014-Jul-19 08:24N 35°37' E 139°48'0 0.0
2014-Jul-19 07:27N 35°37' E 139°48'0 0.0
2014-Jul-19 06:30N 35°37' E 139°48'0 0.0
2014-Jul-19 05:33N 35°37' E 139°48'0 0.0
2014-Jul-19 04:33N 35°37' E 139°48'0 0.0
2014-Jul-19 03:30N 35°37' E 139°48'0 0.0
2014-Jul-19 02:33N 35°37' E 139°48'0 0.0
2014-Jul-19 01:30N 35°37' E 139°48'0 0.0
2014-Jul-19 00:30N 35°37' E 139°48'0 0.0
2014-Jul-18 23:30N 35°37' E 139°48'0 0.0
2014-Jul-18 22:33N 35°37' E 139°48'0 0.0
2014-Jul-18 21:30N 35°37' E 139°48'0 0.0
2014-Jul-18 20:33N 35°37' E 139°48'6 6.2
2014-Jul-18 19:33N 35°32' E 139°52'1514.8
2014-Jul-18 18:33N 35°18' E 139°44'1514.8
2014-Jul-18 17:33N 35°04' E 139°42'2019.5
2014-Jul-18 16:33N 34°49' E 139°25'6620.5
2014-Jul-18 13:20N 34°17' E 138°16'16518.3
2014-Jul-18 04:20N 33°53' E 134°59'1621.0
2014-Jul-18 03:33N 34°10' E 134°58'2120.8
2014-Jul-18 02:34N 34°30' E 135°02'1413.6
2014-Jul-18 01:32N 34°34' E 134°45'19813.9
2014-Jul-17 11:15N 34°02' E 130°49'1722.0
2014-Jul-17 10:30N 33°59' E 130°29'2021.2
2014-Jul-17 09:33N 33°41' E 130°16'8 7.8
2014-Jul-17 08:32N 33°38' E 130°24'0 0.0
2014-Jul-17 07:32N 33°38' E 130°24'0 0.0
2014-Jul-17 06:32N 33°38' E 130°24'0 0.0
2014-Jul-17 04:32N 33°38' E 130°24'0 0.0
2014-Jul-17 03:29N 33°38' E 130°24'0 0.0
2014-Jul-17 02:29N 33°38' E 130°24'0 0.0
2014-Jul-17 01:29N 33°38' E 130°24'0 0.0
2014-Jul-17 00:32N 33°38' E 130°24'0 0.0
2014-Jul-16 23:32N 33°38' E 130°24'0 0.0
2014-Jul-16 22:32N 33°38' E 130°24'0 0.0
2014-Jul-16 21:34N 33°38' E 130°24'0 0.0
2014-Jul-16 20:34N 33°38' E 130°24'8 8.3
2014-Jul-16 19:33N 33°42' E 130°16'1918.9
2014-Jul-16 18:32N 33°58' E 130°29'19914.9
2014-Jul-16 05:11N 33°16' E 134°22'1219.2
2014-Jul-16 04:33N 33°21' E 134°35'19018.9
2014-Jul-15 18:31N 34°21' E 138°12'4620.1
2014-Jul-15 16:13N 34°38' E 139°04'1319.3
2014-Jul-15 15:33N 34°48' E 139°14'2019.9
2014-Jul-15 14:33N 35°00' E 139°33'1818.0
2014-Jul-15 13:34N 35°14' E 139°46'1414.3
2014-Jul-15 12:33N 35°29' E 139°49'9 8.6
2014-Jul-15 11:33N 35°37' E 139°48'0 0.1
2014-Jul-15 10:33N 35°37' E 139°48'0 0.1
2014-Jul-15 09:33N 35°37' E 139°48'0 0.0
2014-Jul-15 08:33N 35°37' E 139°48'0 0.0
2014-Jul-15 07:33N 35°37' E 139°48'0 0.0
2014-Jul-15 06:33N 35°37' E 139°48'0 0.0
2014-Jul-15 05:33N 35°37' E 139°48'0 0.0
2014-Jul-15 04:33N 35°37' E 139°48'0 0.0
2014-Jul-15 03:27N 35°37' E 139°48'0 0.0
2014-Jul-15 02:33N 35°37' E 139°48'0 0.0
2014-Jul-15 01:30N 35°37' E 139°48'0 0.0
2014-Jul-15 00:33N 35°37' E 139°48'0 0.0
2014-Jul-14 23:33N 35°37' E 139°48'0 0.2
2014-Jul-14 22:33N 35°37' E 139°48'0 0.0
2014-Jul-14 21:21N 35°37' E 139°48'0 0.0
2014-Jul-14 20:33N 35°37' E 139°48'0 0.0
2014-Jul-14 19:33N 35°37' E 139°48'0 0.0
2014-Jul-14 18:33N 35°37' E 139°48'0 0.0
2014-Jul-14 17:33N 35°37' E 139°48'0 0.0
2014-Jul-14 16:33N 35°37' E 139°48'0 0.0
2014-Jul-14 15:33N 35°37' E 139°48'0 0.0
2014-Jul-14 14:33N 35°37' E 139°48'0 0.0
2014-Jul-14 13:30N 35°37' E 139°48'0 0.0
2014-Jul-14 12:33N 35°37' E 139°48'0 0.0
2014-Jul-14 11:33N 35°37' E 139°48'0 0.0
2014-Jul-14 10:33N 35°37' E 139°48'0 0.0
2014-Jul-14 09:33N 35°37' E 139°48'0 0.0
2014-Jul-14 08:33N 35°37' E 139°48'0 0.0
2014-Jul-14 07:33N 35°37' E 139°48'0 0.0
2014-Jul-14 06:33N 35°37' E 139°48'0 0.0
2014-Jul-14 05:33N 35°37' E 139°48'0 0.0
2014-Jul-14 04:33N 35°37' E 139°48'0 0.0
2014-Jul-14 03:33N 35°37' E 139°48'0 0.0
2014-Jul-14 02:30N 35°37' E 139°48'0 0.0
2014-Jul-14 01:30N 35°37' E 139°48'0 0.0
2014-Jul-14 00:33N 35°37' E 139°48'0 0.0
2014-Jul-13 23:33N 35°37' E 139°48'0 0.0
2014-Jul-13 22:33N 35°37' E 139°48'0 0.0
2014-Jul-13 21:33N 35°37' E 139°48'0 0.0
2014-Jul-13 20:33N 35°37' E 139°48'9 8.6
2014-Jul-13 19:33N 35°29' E 139°51'1313.2
2014-Jul-13 18:33N 35°16' E 139°46'1918.6
2014-Jul-13 17:33N 35°00' E 139°35'23619.7
2014-Jul-13 05:33N 33°56' E 134°59'2221.5
2014-Jul-13 04:33N 34°18' E 134°58'1919.2
2014-Jul-13 03:33N 34°37' E 134°60'  

Dump ship's entire track history